Time;durP1;ratioP1;P1;durP2;ratioP2;P2;SDS_P1;SDS_P2;PMS_P1;PMS_P2;Temp;Humidity;BMP_temperature;BMP_pressure;BME280_temperature;BME280_humidity;BME280_pressure;Samples;Min_cycle;Max_cycle;Signal;HPM_P1;HPM_P2
2021/08/17 00:03:52;;;;;;;5.50;3.33;;;;;;;15.42;64.01;100354.84;10337841;28;20073;-59
2021/08/17 00:08:54;;;;;;;8.02;3.22;;;;;;;15.32;63.68;100348.72;10343632;28;20074;-59
2021/08/17 00:13:56;;;;;;;4.32;2.75;;;;;;;15.34;63.94;100346.72;10331838;28;20078;-60
2021/08/17 00:18:57;;;;;;;6.68;3.20;;;;;;;15.29;63.43;100360.56;10333079;28;20053;-60
2021/08/17 00:23:59;;;;;;;4.47;2.78;;;;;;;15.10;63.52;100348.16;10337760;28;20065;-58
2021/08/17 00:29:00;;;;;;;6.53;3.50;;;;;;;15.16;64.04;100334.16;10337443;28;20116;-59
2021/08/17 00:34:02;;;;;;;5.47;3.05;;;;;;;15.05;63.39;100341.56;10341160;28;20569;-58
2021/08/17 00:39:03;;;;;;;4.75;2.85;;;;;;;15.07;63.95;100340.38;10339559;28;20081;-58
2021/08/17 00:44:15;;;;;;;4.35;2.72;;;;;;;15.02;63.16;100342.69;10338256;28;20078;-59
2021/08/17 00:49:18;;;;;;;5.45;3.00;;;;;;;14.96;63.19;100333.41;10331766;28;20523;-59
2021/08/17 00:54:20;;;;;;;4.13;2.25;;;;;;;14.90;63.57;100338.53;10336160;28;20483;-58
2021/08/17 00:59:22;;;;;;;8.77;3.17;;;;;;;14.84;63.08;100330.09;10345122;28;20088;-61
2021/08/17 01:04:23;;;;;;;7.78;2.35;;;;;;;14.52;63.92;100300.19;10340371;28;20104;-58
2021/08/17 01:09:25;;;;;;;5.00;2.58;;;;;;;14.69;64.19;100315.50;10338923;28;20380;-60
2021/08/17 01:14:27;;;;;;;7.57;2.65;;;;;;;14.67;64.58;100329.06;10331996;28;22880;-57
2021/08/17 01:19:28;;;;;;;5.47;2.47;;;;;;;14.71;65.04;100324.22;10338761;28;20200;-57
2021/08/17 01:24:29;;;;;;;7.53;3.55;;;;;;;14.72;64.42;100339.31;10336578;28;20077;-60
2021/08/17 01:29:32;;;;;;;6.18;3.00;;;;;;;14.63;64.16;100342.88;10335891;28;20120;-58
2021/08/17 01:34:34;;;;;;;5.82;2.30;;;;;;;14.80;64.14;100354.66;10338499;28;20701;-58
2021/08/17 01:39:35;;;;;;;5.88;3.35;;;;;;;14.90;63.50;100359.97;10338457;28;20127;-58
2021/08/17 01:44:37;;;;;;;4.53;2.60;;;;;;;14.75;64.11;100363.13;10335699;28;20075;-59
2021/08/17 01:49:38;;;;;;;6.88;2.40;;;;;;;14.90;64.06;100366.16;10322861;28;20069;-60
2021/08/17 01:54:39;;;;;;;7.30;3.35;;;;;;;14.66;64.14;100364.84;10335625;28;20109;-60
2021/08/17 01:59:41;;;;;;;5.10;2.78;;;;;;;14.66;64.25;100361.34;10334871;28;20069;-59
2021/08/17 02:04:42;;;;;;;8.80;2.97;;;;;;;14.68;64.39;100362.03;10328491;28;20081;-61
2021/08/17 02:09:43;;;;;;;4.43;2.35;;;;;;;14.74;65.01;100368.66;10326441;28;20065;-60
2021/08/17 02:14:45;;;;;;;5.70;2.65;;;;;;;14.71;65.83;100372.44;10323647;28;20069;-60
2021/08/17 02:19:46;;;;;;;4.80;2.70;;;;;;;14.77;65.36;100377.25;10333028;28;20050;-58
2021/08/17 02:24:48;;;;;;;3.97;2.35;;;;;;;14.74;66.03;100372.19;10328499;28;20069;-59
2021/08/17 02:29:49;;;;;;;7.07;3.25;;;;;;;14.65;65.37;100376.59;10331609;28;20041;-59
2021/08/17 02:34:51;;;;;;;6.47;3.63;;;;;;;14.67;65.33;100376.44;10336843;28;20136;-60
2021/08/17 02:39:52;;;;;;;6.47;2.80;;;;;;;14.46;66.22;100385.50;10332389;28;20077;-58
2021/08/17 02:44:53;;;;;;;6.50;3.50;;;;;;;14.40;66.46;100387.91;10331537;28;20049;-59
2021/08/17 02:49:55;;;;;;;5.93;3.20;;;;;;;14.65;65.58;100379.25;10331312;28;20077;-58
2021/08/17 02:54:56;;;;;;;4.70;2.80;;;;;;;14.83;65.51;100373.09;10332889;28;20054;-57
2021/08/17 02:59:58;;;;;;;4.82;3.28;;;;;;;14.61;65.24;100364.47;10328339;28;20134;-60
2021/08/17 03:04:59;;;;;;;9.40;3.58;;;;;;;14.65;65.38;100373.03;10338283;28;20057;-59
2021/08/17 03:10:01;;;;;;;4.63;2.85;;;;;;;14.71;65.36;100376.97;10332538;28;20133;-58
2021/08/17 03:15:03;;;;;;;5.47;3.88;;;;;;;14.61;65.26;100382.38;10330247;28;20115;-58
2021/08/17 03:20:06;;;;;;;4.97;3.10;;;;;;;14.61;66.12;100372.50;10341743;28;20046;-58
2021/08/17 03:25:11;;;;;;;4.23;3.50;;;;;;;14.49;65.95;100374.47;10340984;28;20052;-57
2021/08/17 03:30:15;;;;;;;6.50;2.70;;;;;;;14.37;66.76;100381.00;10338820;28;20058;-59
2021/08/17 03:35:19;;;;;;;;;;;;;;;14.26;67.02;100383.84;10344393;28;20085;-58
2021/08/17 03:40:22;;;;;;;8.02;3.92;;;;;;;14.13;68.04;100376.97;10347890;28;22803;-59
2021/08/17 03:45:23;;;;;;;7.03;4.45;;;;;;;14.20;67.27;100374.59;10338136;28;20139;-58
2021/08/17 03:50:25;;;;;;;6.28;3.97;;;;;;;13.93;68.52;100386.88;10336194;28;20057;-57
2021/08/17 03:55:27;;;;;;;8.02;4.65;;;;;;;13.65;69.86;100385.88;10339029;28;20518;-59
2021/08/17 04:00:32;;;;;;;4.95;3.45;;;;;;;13.79;69.65;100382.78;10350234;28;20131;-58
2021/08/17 04:05:34;;;;;;;7.40;3.38;;;;;;;13.81;69.57;100381.78;10340409;28;20073;-59
2021/08/17 04:10:35;;;;;;;5.47;3.90;;;;;;;13.73;70.01;100395.88;10335627;28;20101;-59
2021/08/17 04:15:36;;;;;;;8.07;3.50;;;;;;;13.83;70.55;100403.91;10343494;28;20107;-60
2021/08/17 04:20:38;;;;;;;5.43;4.15;;;;;;;13.87;70.19;100405.31;10346699;28;20045;-60
2021/08/17 04:25:40;;;;;;;6.50;4.57;;;;;;;13.76;71.11;100414.31;10336534;28;20045;-59
2021/08/17 04:30:41;;;;;;;10.52;4.85;;;;;;;13.73;70.52;100415.44;10336389;28;20065;-58
2021/08/17 04:35:42;;;;;;;6.53;3.90;;;;;;;13.82;70.35;100416.44;10340723;28;20050;-59
2021/08/17 04:40:44;;;;;;;6.45;4.75;;;;;;;13.85;70.07;100429.53;10335838;28;20065;-58
2021/08/17 04:45:47;;;;;;;6.93;4.28;;;;;;;13.84;70.32;100433.22;10337478;28;20050;-58
2021/08/17 04:50:48;;;;;;;7.45;5.00;;;;;;;13.90;69.75;100432.66;10333944;28;20061;-58
2021/08/17 04:55:50;;;;;;;7.78;5.10;;;;;;;13.85;69.97;100421.50;10335932;28;20050;-59
2021/08/17 05:00:51;;;;;;;8.48;5.22;;;;;;;13.71;70.23;100417.41;10325976;28;20133;-59
2021/08/17 05:05:53;;;;;;;8.38;5.07;;;;;;;13.92;70.16;100430.66;10332049;28;20114;-60
2021/08/17 05:10:54;;;;;;;7.00;5.38;;;;;;;13.86;69.78;100443.78;10343021;28;20079;-58
2021/08/17 05:15:56;;;;;;;8.95;5.00;;;;;;;13.94;70.02;100438.53;10342498;28;20123;-60
2021/08/17 05:20:58;;;;;;;8.00;5.78;;;;;;;14.10;69.50;100443.34;10337544;28;20054;-57
2021/08/17 05:26:00;;;;;;;10.48;5.75;;;;;;;14.08;69.30;100437.28;10336012;28;20089;-60
2021/08/17 05:31:01;;;;;;;7.18;5.70;;;;;;;14.07;69.66;100444.47;10344214;28;20104;-58
2021/08/17 05:36:03;;;;;;;8.18;5.55;;;;;;;14.03;69.36;100443.06;10333164;28;20415;-59
2021/08/17 05:41:05;;;;;;;6.57;5.40;;;;;;;14.12;69.82;100466.28;10334951;28;20741;-59
2021/08/17 05:46:06;;;;;;;7.05;5.78;;;;;;;14.23;69.66;100464.44;10338967;28;20102;-59
2021/08/17 05:51:13;;;;;;;8.02;5.65;;;;;;;14.38;69.54;100471.09;10335483;28;20052;-58
2021/08/17 05:56:14;;;;;;;9.52;5.75;;;;;;;14.38;68.53;100467.53;10309976;28;20136;-58
2021/08/17 06:01:15;;;;;;;8.65;5.60;;;;;;;14.56;68.56;100481.03;10309722;28;20148;-58
2021/08/17 06:06:24;;;;;;;8.77;6.63;;;;;;;14.67;68.04;100475.56;10301176;28;20181;-58
2021/08/17 06:11:25;;;;;;;13.35;6.35;;;;;;;14.79;67.87;100477.09;10319943;28;20170;-58
2021/08/17 06:16:27;;;;;;;8.82;6.80;;;;;;;14.76;67.12;100476.53;10307912;28;20191;-61
2021/08/17 06:21:28;;;;;;;9.85;7.10;;;;;;;14.87;69.59;100489.75;10303775;28;20120;-56
2021/08/17 06:26:30;;;;;;;9.15;6.65;;;;;;;14.96;67.23;100472.78;10304802;28;20152;-60
2021/08/17 06:31:32;;;;;;;9.85;6.03;;;;;;;15.03;65.58;100478.41;10303955;28;20042;-58
2021/08/17 06:36:36;;;;;;;10.77;7.15;;;;;;;15.14;65.59;100480.91;10306332;28;20053;-59
2021/08/17 06:41:38;;;;;;;9.05;6.57;;;;;;;15.28;65.04;100481.41;10314116;28;20053;-57
2021/08/17 06:46:40;;;;;;;9.75;7.13;;;;;;;15.38;64.74;100480.34;10321195;28;20050;-59
2021/08/17 06:51:41;;;;;;;11.13;7.72;;;;;;;15.87;62.98;100498.06;10314510;28;20096;-57
2021/08/17 06:56:43;;;;;;;9.60;6.40;;;;;;;15.93;63.03;100480.47;10316196;28;20164;-59
2021/08/17 07:01:44;;;;;;;10.75;7.28;;;;;;;15.87;62.95;100482.78;10317135;28;20207;-60
2021/08/17 07:06:46;;;;;;;11.68;7.93;;;;;;;15.98;62.74;100473.66;10315937;28;20088;-61
2021/08/17 07:11:48;;;;;;;8.52;6.53;;;;;;;15.79;62.82;100488.03;10308061;28;20570;-60
2021/08/17 07:16:49;;;;;;;10.35;6.55;;;;;;;15.66;63.56;100484.88;10313220;28;20089;-59
2021/08/17 07:21:51;;;;;;;11.02;7.88;;;;;;;15.66;64.10;100485.72;10311815;28;20050;-58
2021/08/17 07:26:53;;;;;;;11.43;7.20;;;;;;;16.05;63.36;100492.69;10311131;28;20136;-58
2021/08/17 07:31:55;;;;;;;11.30;7.85;;;;;;;16.18;62.61;100485.09;10313617;28;20056;-58
2021/08/17 07:36:56;;;;;;;9.45;6.65;;;;;;;16.54;62.03;100493.09;10310878;28;21343;-58
2021/08/17 07:41:58;;;;;;;8.00;6.85;;;;;;;16.72;61.17;100495.75;10314488;28;20070;-58
2021/08/17 07:46:59;;;;;;;9.73;7.70;;;;;;;16.96;60.40;100494.22;10308632;28;20101;-58
2021/08/17 07:52:01;;;;;;;9.90;8.00;;;;;;;17.04;59.67;100494.28;10306198;28;20062;-59
2021/08/17 07:57:02;;;;;;;9.13;7.32;;;;;;;17.26;59.34;100482.13;10308425;28;20079;-60
2021/08/17 08:02:04;;;;;;;11.15;8.07;;;;;;;17.48;58.05;100488.75;10332268;28;20054;-61
2021/08/17 08:07:06;;;;;;;9.40;7.65;;;;;;;17.46;58.12;100498.84;10314894;28;20827;-61
2021/08/17 08:12:10;;;;;;;9.68;7.65;;;;;;;17.57;58.26;100492.31;10318894;28;20057;-59
2021/08/17 08:17:12;;;;;;;9.73;7.50;;;;;;;17.75;57.85;100488.69;10333317;28;20178;-58
2021/08/17 08:22:14;;;;;;;11.90;8.75;;;;;;;17.58;57.33;100499.41;10316299;28;20050;-61
2021/08/17 08:27:15;;;;;;;11.18;7.70;;;;;;;17.82;57.19;100493.22;10331329;28;20045;-60
2021/08/17 08:32:17;;;;;;;12.82;8.20;;;;;;;18.01;57.45;100502.91;10316367;28;20137;-59
2021/08/17 08:37:18;;;;;;;10.48;8.40;;;;;;;18.20;56.86;100503.59;10314632;28;20077;-62
2021/08/17 08:42:22;;;;;;;9.52;7.28;;;;;;;17.82;57.60;100503.16;10309451;28;20042;-60
2021/08/17 08:47:24;;;;;;;10.25;7.40;;;;;;;17.96;57.76;100513.31;10315041;28;20052;-58
2021/08/17 08:52:25;;;;;;;12.20;8.75;;;;;;;17.93;57.39;100513.66;10313056;28;20050;-59
2021/08/17 08:57:27;;;;;;;10.63;7.93;;;;;;;18.24;56.26;100507.63;10320904;28;20648;-58
2021/08/17 09:02:30;;;;;;;12.52;8.35;;;;;;;18.02;56.46;100507.25;10313213;28;20140;-60
2021/08/17 09:07:43;;;;;;;9.73;7.47;;;;;;;17.65;58.36;100508.50;10315592;28;20065;-58
2021/08/17 09:13:10;;;;;;;11.10;7.93;;;;;;;17.73;57.52;100514.91;10315301;28;20292;-58
2021/08/17 09:18:12;;;;;;;13.43;9.52;;;;;;;17.62;58.07;100508.81;10332590;28;20181;-58
2021/08/17 09:23:33;;;;;;;12.90;8.93;;;;;;;17.58;58.32;100523.63;10317526;28;20616;-59
2021/08/17 09:28:35;;;;;;;10.70;8.55;;;;;;;17.38;58.94;100506.03;10318716;28;20117;-60
2021/08/17 09:33:40;;;;;;;9.93;7.80;;;;;;;17.40;59.15;100501.34;10314286;28;20546;-59
2021/08/17 09:38:41;;;;;;;11.55;9.13;;;;;;;17.39;58.79;100494.28;10315219;28;20128;-60
2021/08/17 09:43:57;;;;;;;11.00;8.73;;;;;;;17.75;58.63;100472.53;10319403;28;20495;-58
2021/08/17 09:49:23;;;;;;;11.45;8.57;;;;;;;18.38;56.66;100474.63;10314383;28;20131;-61
2021/08/17 09:54:26;;;;;;;12.55;8.40;;;;;;;18.49;56.45;100465.34;10312949;28;20117;-61
2021/08/17 09:59:29;;;;;;;11.40;8.63;;;;;;;18.52;56.08;100462.28;10316978;28;20092;-59
2021/08/17 10:04:31;;;;;;;10.15;8.77;;;;;;;18.05;57.35;100454.09;10308680;28;20426;-59
2021/08/17 10:09:36;;;;;;;11.27;9.07;;;;;;;17.88;58.48;100448.66;10311929;28;20187;-62
2021/08/17 10:14:39;;;;;;;10.20;8.05;;;;;;;17.89;58.41;100442.28;10310223;28;20128;-60
2021/08/17 10:19:43;;;;;;;11.37;8.63;;;;;;;18.50;56.82;100441.94;10314406;28;20119;-60
2021/08/17 10:24:47;;;;;;;10.25;7.63;;;;;;;18.71;55.92;100436.81;10312109;28;20285;-60
2021/08/17 10:29:55;;;;;;;11.77;7.93;;;;;;;18.44;56.36;100429.16;10317997;28;20076;-62
2021/08/17 10:34:57;;;;;;;11.23;7.70;;;;;;;18.72;54.92;100454.69;10313157;28;20174;-59
2021/08/17 10:39:58;;;;;;;11.80;8.68;;;;;;;18.64;55.26;100449.31;10314665;28;20088;-58
2021/08/17 10:45:27;;;;;;;11.50;7.82;;;;;;;20.45;49.72;100429.44;10311133;28;20133;-61
2021/08/17 10:50:31;;;;;;;10.63;7.20;;;;;;;21.59;47.33;100424.72;10313018;28;20046;-60
2021/08/17 10:55:37;;;;;;;10.05;6.97;;;;;;;21.91;45.10;100428.00;10313379;28;20578;-61
2021/08/17 11:00:39;;;;;;;8.93;6.57;;;;;;;23.02;43.56;100432.78;10311310;28;20137;-59
2021/08/17 11:05:51;;;;;;;10.18;7.45;;;;;;;24.83;38.69;100432.06;10311219;28;20181;-61
2021/08/17 11:10:53;;;;;;;8.75;7.65;;;;;;;23.87;39.31;100427.91;10307989;28;20054;-62
2021/08/17 11:16:08;;;;;;;8.50;7.43;;;;;;;22.60;42.27;100430.88;10312001;28;20570;-62
2021/08/17 11:21:10;;;;;;;8.65;6.70;;;;;;;21.94;43.49;100427.59;10317126;28;20442;-61
2021/08/17 11:26:11;;;;;;;9.75;7.43;;;;;;;21.80;43.28;100434.75;10313882;28;20089;-60
2021/08/17 11:31:13;;;;;;;12.15;7.38;;;;;;;21.17;44.78;100427.97;10314817;28;20096;-59
2021/08/17 11:36:21;;;;;;;8.25;7.00;;;;;;;20.87;45.00;100426.31;10316984;28;20710;-60
2021/08/17 11:41:30;;;;;;;10.25;6.90;;;;;;;21.01;44.48;100434.41;10321466;28;20121;-59
2021/08/17 11:46:32;;;;;;;11.05;6.60;;;;;;;20.86;44.77;100436.31;10324664;28;20050;-60
2021/08/17 11:51:33;;;;;;;9.40;6.78;;;;;;;21.04;43.53;100425.09;10321142;28;20187;-61
2021/08/17 11:56:35;;;;;;;9.73;6.68;;;;;;;21.08;43.88;100434.53;10323529;28;20050;-58
2021/08/17 12:01:36;;;;;;;9.32;6.47;;;;;;;20.43;44.45;100423.38;10321968;28;20074;-60
2021/08/17 12:06:38;;;;;;;7.75;6.60;;;;;;;20.42;44.30;100421.69;10319927;28;20451;-62
2021/08/17 12:11:56;;;;;;;6.22;5.45;;;;;;;20.34;44.54;100424.47;10323357;28;20461;-61
2021/08/17 12:16:58;;;;;;;7.20;5.85;;;;;;;20.55;43.89;100428.31;10320008;28;20076;-64
2021/08/17 12:22:02;;;;;;;6.47;5.32;;;;;;;20.44;45.01;100418.81;10317340;28;20128;-60
2021/08/17 12:27:04;;;;;;;7.20;6.07;;;;;;;20.33;45.35;100413.81;10305847;28;20507;-60
2021/08/17 12:32:35;;;;;;;6.82;5.90;;;;;;;20.33;43.93;100401.16;10313657;28;20165;-60
2021/08/17 12:37:37;;;;;;;6.95;5.60;;;;;;;20.21;45.29;100410.75;10303207;28;20046;-59
2021/08/17 12:42:45;;;;;;;6.93;5.72;;;;;;;20.19;45.02;100396.56;10314514;28;20065;-60
2021/08/17 12:47:57;;;;;;;7.32;5.60;;;;;;;19.99;44.52;100401.66;10313356;28;20121;-58
2021/08/17 12:52:58;;;;;;;8.98;5.38;;;;;;;19.99;44.36;100375.47;10313274;28;20426;-59
2021/08/17 12:58:00;;;;;;;7.72;5.15;;;;;;;20.07;44.26;100371.84;10315666;28;20717;-60
2021/08/17 13:03:05;;;;;;;5.10;4.60;;;;;;;19.93;44.33;100360.81;10317117;28;20232;-57
2021/08/17 13:08:08;;;;;;;8.25;6.80;;;;;;;19.85;44.73;100362.78;10312909;28;20407;-59
2021/08/17 13:13:10;;;;;;;6.75;4.72;;;;;;;19.90;42.44;100361.19;10314413;28;20574;-57
2021/08/17 13:18:11;;;;;;;7.05;6.35;;;;;;;20.05;41.61;100355.81;10317869;28;20204;-63
2021/08/17 13:23:13;;;;;;;7.90;5.28;;;;;;;19.98;42.08;100354.03;10317497;28;20133;-61
2021/08/17 13:28:14;;;;;;;6.05;5.32;;;;;;;19.88;43.08;100351.59;10316995;28;20137;-59
2021/08/17 13:33:15;;;;;;;9.50;8.20;;;;;;;19.85;43.56;100341.16;10311876;28;20054;-60
2021/08/17 13:38:17;;;;;;;7.63;5.22;;;;;;;19.96;43.34;100338.00;10314560;28;20109;-62
2021/08/17 13:43:18;;;;;;;7.10;6.40;;;;;;;20.19;43.28;100334.41;10313582;28;20058;-59
2021/08/17 13:48:20;;;;;;;9.55;8.65;;;;;;;20.55;43.14;100330.97;10312485;28;20161;-60
2021/08/17 13:53:21;;;;;;;8.63;6.97;;;;;;;20.53;43.15;100309.53;10307801;28;20131;-62
2021/08/17 13:58:23;;;;;;;7.63;5.47;;;;;;;20.78;42.89;100309.28;10308662;28;21398;-60
2021/08/17 14:03:24;;;;;;;8.38;5.28;;;;;;;20.60;43.27;100312.34;10316429;28;20057;-63
2021/08/17 14:08:26;;;;;;;10.23;5.65;;;;;;;20.23;44.10;100306.81;10305075;28;20061;-62
2021/08/17 14:13:28;;;;;;;7.55;6.15;;;;;;;19.94;44.99;100330.09;10307920;28;20085;-60
2021/08/17 14:18:31;;;;;;;9.25;6.05;;;;;;;19.61;46.08;100329.50;10311523;28;20121;-60
2021/08/17 14:23:34;;;;;;;9.15;6.43;;;;;;;19.50;46.71;100332.59;10314298;28;20184;-59
2021/08/17 14:28:36;;;;;;;7.35;6.00;;;;;;;19.35;46.84;100329.84;10308430;28;20053;-62
2021/08/17 14:33:37;;;;;;;8.25;5.63;;;;;;;19.30;46.32;100329.56;10306585;28;20089;-62
2021/08/17 14:38:40;;;;;;;7.55;6.38;;;;;;;19.20;46.17;100311.75;10309227;28;20198;-60
2021/08/17 14:43:42;;;;;;;8.43;6.17;;;;;;;19.40;46.43;100340.97;10312754;28;20140;-62
2021/08/17 14:48:44;;;;;;;8.98;6.35;;;;;;;19.33;45.54;100330.03;10305123;28;20155;-63
2021/08/17 14:53:45;;;;;;;5.70;4.28;;;;;;;19.30;45.53;100337.66;10319771;28;21611;-62
2021/08/17 14:58:47;;;;;;;9.60;8.43;;;;;;;19.18;45.28;100331.81;10308546;28;20137;-61
2021/08/17 15:03:48;;;;;;;8.40;6.47;;;;;;;19.11;45.25;100334.41;10309125;28;20066;-62
2021/08/17 15:08:50;;;;;;;7.88;5.95;;;;;;;19.19;45.82;100320.03;10308430;28;20046;-61
2021/08/17 15:13:51;;;;;;;6.13;5.30;;;;;;;19.36;45.65;100336.94;10300985;28;20086;-60
2021/08/17 15:18:53;;;;;;;7.65;5.68;;;;;;;19.16;45.96;100320.38;10307506;28;21649;-61
2021/08/17 15:23:54;;;;;;;9.35;5.80;;;;;;;18.90;46.01;100316.13;10304604;28;20058;-63
2021/08/17 15:28:56;;;;;;;9.23;6.38;;;;;;;18.84;46.24;100312.25;10309016;28;20099;-62
2021/08/17 15:33:58;;;;;;;8.93;6.40;;;;;;;18.76;46.19;100311.44;10320949;28;20120;-62
2021/08/17 15:39:00;;;;;;;9.85;6.88;;;;;;;18.71;46.83;100325.47;10319376;28;20369;-62
2021/08/17 15:44:02;;;;;;;8.80;6.68;;;;;;;18.50;47.11;100313.41;10307477;28;20208;-61
2021/08/17 15:49:03;;;;;;;9.63;6.55;;;;;;;18.54;47.40;100311.22;10307722;28;20112;-60
2021/08/17 15:54:05;;;;;;;9.43;6.80;;;;;;;18.52;48.38;100314.06;10319514;28;20706;-60
2021/08/17 15:59:07;;;;;;;9.35;7.10;;;;;;;18.51;49.33;100311.53;10287224;28;20201;-63
2021/08/17 16:04:08;;;;;;;10.30;7.50;;;;;;;18.61;51.10;100306.78;10300579;28;20211;-61
2021/08/17 16:09:10;;;;;;;34.58;26.60;;;;;;;18.69;51.93;100309.47;10300933;28;21647;-60
2021/08/17 16:14:13;;;;;;;10.98;7.85;;;;;;;18.77;51.75;100316.66;10302468;28;20137;-59
2021/08/17 16:19:14;;;;;;;9.52;7.40;;;;;;;18.59;52.95;100321.47;10308130;28;20077;-60
2021/08/17 16:24:16;;;;;;;10.45;7.75;;;;;;;18.62;54.71;100313.84;10324744;28;20081;-59
2021/08/17 16:29:18;;;;;;;9.68;7.45;;;;;;;18.55;54.28;100315.56;10315324;28;20070;-61
2021/08/17 16:34:19;;;;;;;9.95;7.25;;;;;;;18.52;54.97;100319.44;10312809;28;20884;-59
2021/08/17 16:39:21;;;;;;;10.13;8.38;;;;;;;18.39;56.19;100313.78;10314348;28;20141;-60
2021/08/17 16:44:22;;;;;;;9.23;7.35;;;;;;;18.33;55.38;100309.91;10316335;28;20595;-63
2021/08/17 16:49:24;;;;;;;10.93;8.07;;;;;;;18.07;56.14;100293.97;10312451;28;20539;-59
2021/08/17 16:54:25;;;;;;;11.43;8.30;;;;;;;18.16;57.56;100289.41;10314518;28;20127;-61
2021/08/17 16:59:27;;;;;;;9.52;7.43;;;;;;;18.35;57.15;100296.28;10317828;28;20057;-58
2021/08/17 17:04:28;;;;;;;12.25;9.20;;;;;;;18.38;57.24;100302.16;10315668;28;20106;-65
2021/08/17 17:09:29;;;;;;;11.60;8.32;;;;;;;18.31;58.03;100287.69;10314106;28;20074;-57
2021/08/17 17:14:31;;;;;;;10.63;8.63;;;;;;;18.36;57.31;100282.63;10312113;28;20176;-57
2021/08/17 17:19:33;;;;;;;13.60;9.55;;;;;;;18.39;57.66;100289.53;10311054;28;20514;-56
2021/08/17 17:24:34;;;;;;;12.05;8.55;;;;;;;18.10;56.82;100292.78;10314196;28;20050;-56
2021/08/17 17:29:36;;;;;;;13.43;8.57;;;;;;;18.05;58.96;100287.09;10319940;28;20531;-58
2021/08/17 17:34:37;;;;;;;12.27;8.90;;;;;;;18.21;60.48;100295.16;10308911;28;20141;-57
2021/08/17 17:39:40;;;;;;;14.50;10.00;;;;;;;18.18;60.69;100303.56;10312679;28;20147;-56
2021/08/17 17:44:42;;;;;;;12.40;8.27;;;;;;;18.03;60.76;100308.81;10312916;28;20421;-57
2021/08/17 17:49:43;;;;;;;11.85;8.38;;;;;;;17.71;63.33;100304.25;10303099;28;20046;-56
2021/08/17 17:54:45;;;;;;;11.18;7.88;;;;;;;17.79;62.58;100297.03;10314381;28;20116;-56
2021/08/17 17:59:46;;;;;;;11.77;8.70;;;;;;;17.77;66.08;100299.03;10311715;28;20511;-57
2021/08/17 18:04:48;;;;;;;12.32;9.02;;;;;;;17.56;66.01;100296.03;10306546;28;20152;-56
2021/08/17 18:09:50;;;;;;;12.05;9.10;;;;;;;17.35;69.23;100309.97;10311450;28;20623;-56
2021/08/17 18:14:51;;;;;;;11.75;8.50;;;;;;;17.53;69.75;100302.56;10308795;28;20056;-56
2021/08/17 18:19:53;;;;;;;14.20;10.60;;;;;;;17.60;69.42;100306.28;10303564;28;20869;-56
2021/08/17 18:24:54;;;;;;;12.88;10.05;;;;;;;17.48;71.54;100321.06;10312127;28;20157;-58
2021/08/17 18:29:56;;;;;;;14.60;11.18;;;;;;;17.55;71.64;100305.94;10304194;28;20164;-57
2021/08/17 18:34:57;;;;;;;12.45;9.48;;;;;;;17.52;71.66;100303.59;10315451;28;20065;-57
2021/08/17 18:39:59;;;;;;;10.88;8.38;;;;;;;17.42;70.76;100311.00;10309457;28;20554;-57
2021/08/17 18:45:02;;;;;;;9.98;7.85;;;;;;;17.42;70.68;100294.84;10308152;28;20046;-57
2021/08/17 18:50:08;;;;;;;11.47;8.33;;;;;;;17.38;71.27;100309.63;10307548;28;20349;-58
2021/08/17 18:55:10;;;;;;;12.63;9.55;;;;;;;17.35;70.02;100312.66;10313011;28;20124;-57
2021/08/17 19:00:13;;;;;;;12.40;9.63;;;;;;;17.35;73.04;100313.47;10310421;28;20146;-58
2021/08/17 19:05:14;;;;;;;11.63;9.60;;;;;;;17.23;70.92;100307.56;10309624;28;20061;-58
2021/08/17 19:10:16;;;;;;;16.92;10.68;;;;;;;17.28;71.81;100315.19;10299286;28;20068;-59
2021/08/17 19:15:19;;;;;;;11.70;9.32;;;;;;;17.22;72.72;100314.00;10322607;28;20470;-57
2021/08/17 19:20:22;;;;;;;14.55;10.50;;;;;;;17.10;71.95;100313.47;10310749;28;20058;-58
2021/08/17 19:25:24;;;;;;;17.07;10.20;;;;;;;16.91;73.12;100314.56;10305853;28;20131;-57
2021/08/17 19:30:26;;;;;;;17.08;11.40;;;;;;;17.04;73.71;100313.25;10312743;28;20062;-57
2021/08/17 19:35:28;;;;;;;14.55;11.13;;;;;;;16.99;73.34;100316.44;10307324;28;20061;-57
2021/08/17 19:40:29;;;;;;;13.38;9.35;;;;;;;16.85;74.23;100309.81;10303802;28;20054;-57
2021/08/17 19:45:32;;;;;;;15.63;10.40;;;;;;;16.76;73.48;100302.75;10309788;28;20098;-57
2021/08/17 19:50:46;;;;;;;13.40;10.98;;;;;;;16.57;74.77;100296.63;10323252;28;20221;-57
2021/08/17 19:55:48;;;;;;;13.60;10.95;;;;;;;16.42;75.89;100314.34;10327176;28;20050;-57
2021/08/17 20:00:49;;;;;;;14.35;10.77;;;;;;;16.45;75.97;100305.94;10323246;28;20137;-60
2021/08/17 20:05:51;;;;;;;15.25;10.40;;;;;;;16.39;76.01;100317.34;10328186;28;20050;-58
2021/08/17 20:10:53;;;;;;;16.65;11.48;;;;;;;16.56;76.41;100305.69;10334540;28;20126;-60
2021/08/17 20:15:54;;;;;;;14.30;10.77;;;;;;;16.50;75.94;100306.34;10331637;28;20058;-60
2021/08/17 20:20:56;;;;;;;13.48;10.35;;;;;;;16.37;75.94;100303.25;10345139;28;20049;-63
2021/08/17 20:25:57;;;;;;;14.90;11.57;;;;;;;16.29;76.34;100297.81;10333991;28;20049;-59
2021/08/17 20:30:59;;;;;;;15.20;11.38;;;;;;;16.30;76.81;100299.50;10334415;28;20427;-59
2021/08/17 20:36:00;;;;;;;16.08;10.88;;;;;;;16.27;76.96;100300.66;10338159;28;20053;-59
2021/08/17 20:41:02;;;;;;;15.43;10.60;;;;;;;16.17;77.65;100297.25;10333746;28;20092;-59
2021/08/17 20:46:05;;;;;;;17.17;11.82;;;;;;;16.19;77.49;100295.25;10330154;28;20054;-58
2021/08/17 20:51:08;;;;;;;13.57;10.27;;;;;;;16.12;78.32;100286.16;10330300;28;20066;-60
2021/08/17 20:56:09;;;;;;;16.67;12.27;;;;;;;16.02;78.43;100297.00;10335706;28;20078;-59
2021/08/17 21:01:11;;;;;;;17.05;11.02;;;;;;;15.88;79.44;100285.84;10334878;28;20138;-58
2021/08/17 21:06:13;;;;;;;16.27;10.63;;;;;;;15.86;79.23;100287.81;10333488;28;20046;-60
2021/08/17 21:11:14;;;;;;;14.13;10.80;;;;;;;15.80;79.69;100271.53;10335449;28;20144;-59
2021/08/17 21:16:16;;;;;;;13.52;10.88;;;;;;;15.91;79.85;100279.28;10333641;28;20054;-58
2021/08/17 21:21:17;;;;;;;16.58;11.93;;;;;;;15.94;79.52;100267.41;10330348;28;20129;-59
2021/08/17 21:26:19;;;;;;;15.68;10.98;;;;;;;15.93;79.36;100261.22;10328556;28;20133;-59
2021/08/17 21:31:20;;;;;;;15.40;11.32;;;;;;;15.64;81.21;100266.84;10340540;28;20189;-58
2021/08/17 21:36:22;;;;;;;17.63;11.13;;;;;;;15.56;81.62;100265.75;10342218;28;20058;-59
2021/08/17 21:41:23;;;;;;;16.13;11.13;;;;;;;15.58;81.90;100273.66;10336457;28;20087;-60
2021/08/17 21:46:25;;;;;;;15.90;11.52;;;;;;;15.53;82.85;100271.44;10331761;28;20058;-59
2021/08/17 21:51:27;;;;;;;16.33;11.95;;;;;;;15.36;83.02;100264.28;10326968;28;20057;-61
2021/08/17 21:56:28;;;;;;;16.38;11.88;;;;;;;15.44;82.41;100272.38;10336011;28;20052;-59
2021/08/17 22:01:30;;;;;;;17.40;12.93;;;;;;;15.38;83.09;100262.28;10331416;28;20062;-59
2021/08/17 22:06:32;;;;;;;16.80;13.07;;;;;;;15.48;83.69;100268.41;10336002;28;20069;-60
2021/08/17 22:11:33;;;;;;;16.92;10.98;;;;;;;15.65;82.29;100269.34;10334941;28;20065;-58
2021/08/17 22:16:35;;;;;;;16.92;11.75;;;;;;;15.73;82.99;100266.75;10331319;28;20072;-61
2021/08/17 22:21:36;;;;;;;18.95;12.55;;;;;;;15.69;82.71;100269.91;10331234;28;20081;-60
2021/08/17 22:26:38;;;;;;;17.08;12.07;;;;;;;15.72;82.56;100254.31;10335300;28;20053;-59
2021/08/17 22:31:39;;;;;;;18.08;11.95;;;;;;;15.73;82.83;100260.53;10329166;28;20073;-59
2021/08/17 22:36:41;;;;;;;16.83;12.82;;;;;;;15.70;82.90;100255.47;10337861;28;20078;-60
2021/08/17 22:41:42;;;;;;;21.33;13.82;;;;;;;15.55;83.74;100263.25;10331439;28;20042;-59
2021/08/17 22:46:43;;;;;;;16.33;13.07;;;;;;;15.69;84.03;100256.50;10331612;28;20042;-60
2021/08/17 22:51:45;;;;;;;17.17;13.00;;;;;;;15.71;82.84;100247.25;10327892;28;20080;-61
2021/08/17 22:56:46;;;;;;;19.38;14.32;;;;;;;15.53;83.78;100239.25;10330663;28;20059;-60
2021/08/17 23:01:48;;;;;;;19.55;12.82;;;;;;;15.65;83.75;100234.47;10331879;28;20073;-59